Hlavní strana
METAR-TAF:

METAR-TAF

Letiště :

Örnsköldsvik, Švédsko

zeměpisná šířka: 63-24N, zeměpisná délka: 018-58E, výška: 103 m

Aktuální stav počasí

Zpráva byla vytvořena před 20 minutami, v 14:20 UTC
Západní vítr 17 kt
Teplota 15°C
Vlhkost vzduchu 51%
Tlak 1013 hPa
Viditelnost 10 km a více

METAR: ESNO 181420Z AUTO 28017KT 9999 SCT051/// 15/05 Q1013

Čas: 16:40 (14:40 UTC)

Předpověď počasí

Zpráva byla vytvořena před 2 hodinami a 10 minutami, v 12:30 UTC
Předpověď platná od 18 v 13 UTC do 18 v 18 UTC
Západoseverozápadní vítr 20 kt s nárazy do 30 kt
Viditelnost 10 km a více
Polojasno ve výšce 4500 ft

TAF: ESNO 181230Z 1813/1818 30020G30KT 9999 SCT045

Stav a předpovědi počasí z více než 4 000 letišť (zprávy METAR a TAF).

Červené a žluté tečky na mapě představují dostupné meteorologické stanice.

Když kurzor umístíte na tečku, zobrazí se název stanice.

Pak kliknutím zobrazíte stav a předpověď počasí.

Chcete-li změnit mapu, kliknutím na zelené tlačítko se znaménkem +mapu přiblížíte, kliknutím na zelené tlačítko se znaménkem – mapu oddálíte a kliknutím na zelené šipky přejdete na sousední mapy.


METAR-TAF: